createdAt,value
2023-06-17T00:00:40.197Z,37.22
2023-06-17T00:06:02.102Z,37.20
2023-06-17T00:11:24.072Z,36.76
2023-06-17T00:16:46.058Z,37.39
2023-06-17T00:22:09.903Z,37.45
2023-06-17T00:27:31.891Z,36.95
2023-06-17T00:32:54.359Z,37.21
2023-06-17T00:38:16.398Z,37.08
2023-06-17T00:43:38.273Z,37.08
2023-06-17T00:49:00.335Z,37.12
2023-06-17T00:54:22.241Z,36.76
2023-06-17T00:59:45.774Z,37.13
2023-06-17T01:05:14.277Z,36.70
2023-06-17T01:10:58.902Z,36.93
2023-06-17T01:16:21.891Z,36.95
2023-06-17T01:21:44.731Z,36.93
2023-06-17T01:27:06.574Z,36.82
2023-06-17T01:32:28.632Z,36.76
2023-06-17T01:37:59.704Z,36.82
2023-06-17T01:43:22.675Z,36.99
2023-06-17T01:48:44.990Z,36.94
2023-06-17T01:54:07.079Z,36.82
2023-06-17T01:59:29.903Z,37.17
2023-06-17T02:04:52.337Z,36.63
2023-06-17T02:10:14.660Z,36.84
2023-06-17T02:15:36.677Z,36.55
2023-06-17T02:20:58.601Z,36.38
2023-06-17T02:26:21.019Z,36.54
2023-06-17T02:31:42.934Z,36.50
2023-06-17T02:37:05.250Z,36.29
2023-06-17T02:42:27.141Z,36.86
2023-06-17T02:47:49.003Z,36.56
2023-06-17T02:53:11.921Z,36.54
2023-06-17T02:58:33.825Z,36.58
2023-06-17T03:03:56.660Z,36.60
2023-06-17T03:09:19.153Z,36.68
2023-06-17T03:14:41.080Z,36.58
2023-06-17T03:20:03.314Z,36.42
2023-06-17T03:25:25.208Z,36.12
2023-06-17T03:30:47.359Z,36.21
2023-06-17T03:36:09.270Z,36.44
2023-06-17T03:41:31.091Z,35.89
2023-06-17T03:46:53.031Z,36.08
2023-06-17T03:52:14.828Z,35.92
2023-06-17T03:57:36.612Z,35.91
2023-06-17T04:02:58.678Z,36.13
2023-06-17T04:08:21.069Z,35.79
2023-06-17T04:13:42.901Z,35.65
2023-06-17T04:19:04.798Z,35.36
2023-06-17T04:24:27.136Z,35.74
2023-06-17T04:29:49.450Z,35.56
2023-06-17T04:35:12.386Z,33.31
2023-06-17T04:40:34.183Z,31.82
2023-06-17T04:45:55.985Z,31.76
2023-06-17T04:51:19.284Z,31.62
2023-06-17T04:56:41.864Z,31.91
2023-06-17T05:02:04.560Z,32.47
2023-06-17T05:07:26.385Z,31.99
2023-06-17T05:12:48.388Z,32.04
2023-06-17T05:18:10.439Z,32.09
2023-06-17T05:23:32.327Z,31.88
2023-06-17T05:28:55.109Z,32.19
2023-06-17T05:34:16.935Z,32.29
2023-06-17T05:39:38.931Z,32.34
2023-06-17T05:45:00.949Z,32.42
2023-06-17T05:50:24.583Z,32.16
2023-06-17T05:55:46.575Z,32.04
2023-06-17T06:01:08.397Z,32.24
2023-06-17T06:06:31.257Z,32.06
2023-06-17T06:11:54.837Z,32.19
2023-06-17T06:17:16.689Z,32.44
2023-06-17T06:22:38.959Z,32.13
2023-06-17T06:28:00.905Z,31.93
2023-06-17T06:33:24.242Z,32.21
2023-06-17T06:38:46.254Z,32.31
2023-06-17T06:44:12.267Z,32.20
2023-06-17T06:49:35.154Z,32.47
2023-06-17T06:54:57.432Z,32.65
2023-06-17T07:00:20.150Z,32.36
2023-06-17T07:05:42.501Z,32.61
2023-06-17T07:11:04.349Z,32.78
2023-06-17T07:16:26.570Z,32.68
2023-06-17T07:21:50.378Z,32.47
2023-06-17T07:27:13.752Z,32.68
2023-06-17T07:32:35.685Z,32.49
2023-06-17T07:37:57.645Z,32.79
2023-06-17T07:43:19.518Z,32.68
2023-06-17T07:48:41.467Z,32.68
2023-06-17T07:54:03.337Z,32.39
2023-06-17T07:59:25.242Z,32.97
2023-06-17T08:04:49.016Z,32.82
2023-06-17T08:10:11.185Z,33.23
2023-06-17T08:15:33.145Z,32.70
2023-06-17T08:20:55.087Z,32.92
2023-06-17T08:26:16.926Z,32.97
2023-06-17T08:31:38.754Z,32.87
2023-06-17T08:37:05.166Z,32.67
2023-06-17T08:42:30.238Z,32.69
2023-06-17T08:47:52.551Z,32.49
2023-06-17T08:53:15.982Z,32.87
2023-06-17T08:58:39.216Z,32.48
2023-06-17T09:04:03.349Z,32.39
2023-06-17T09:09:25.135Z,32.53
2023-06-17T09:14:49.919Z,32.95
2023-06-17T09:20:16.482Z,33.01
2023-06-17T09:25:38.291Z,32.75
2023-06-17T09:31:05.386Z,32.71
2023-06-17T09:36:27.515Z,33.10
2023-06-17T09:41:49.694Z,32.30
2023-06-17T09:47:11.637Z,32.77
2023-06-17T09:52:36.534Z,32.73
2023-06-17T09:58:03.024Z,32.69
2023-06-17T10:03:25.639Z,32.62
2023-06-17T10:08:53.809Z,32.78
2023-06-17T10:14:22.231Z,32.75
2023-06-17T10:19:44.929Z,32.72
2023-06-17T10:25:07.613Z,32.72
2023-06-17T10:30:30.441Z,32.41
2023-06-17T10:36:07.380Z,32.84
2023-06-17T10:41:45.979Z,32.61
2023-06-17T10:47:22.521Z,32.54
2023-06-17T10:52:46.744Z,32.80
2023-06-17T10:58:08.747Z,32.94
2023-06-17T11:03:31.112Z,32.99
2023-06-17T11:08:56.408Z,32.93
2023-06-17T11:14:21.669Z,32.83
2023-06-17T11:19:44.531Z,33.29
2023-06-17T11:25:06.893Z,33.13
2023-06-17T11:30:28.907Z,32.88
2023-06-17T11:35:54.551Z,32.91
2023-06-17T11:41:17.114Z,32.67
2023-06-17T11:46:39.163Z,32.98
2023-06-17T11:52:03.540Z,33.20
2023-06-17T11:57:27.143Z,32.81
2023-06-17T12:02:49.338Z,32.91
2023-06-17T12:08:11.295Z,32.93
2023-06-17T12:13:43.269Z,32.73
2023-06-17T12:19:07.721Z,32.92
2023-06-17T12:24:30.117Z,33.17
2023-06-17T12:29:52.065Z,33.17
2023-06-17T12:35:16.049Z,33.10
2023-06-17T12:40:37.951Z,33.01
2023-06-17T12:46:01.007Z,32.96
2023-06-17T12:51:23.198Z,32.92
2023-06-17T12:56:45.554Z,32.52
2023-06-17T13:02:08.194Z,32.16
2023-06-17T13:07:30.037Z,32.55
2023-06-17T13:12:51.896Z,32.91
2023-06-17T13:18:16.497Z,32.78
2023-06-17T13:23:38.419Z,33.23
2023-06-17T13:29:05.588Z,33.07
2023-06-17T13:34:28.001Z,33.28
2023-06-17T13:39:49.917Z,33.09
2023-06-17T13:45:15.496Z,33.28
2023-06-17T13:50:37.822Z,33.29
2023-06-17T13:56:00.440Z,33.38
2023-06-17T14:01:22.594Z,33.29
2023-06-17T14:06:47.522Z,33.48
2023-06-17T14:12:12.664Z,33.53
2023-06-17T14:17:34.686Z,33.51
2023-06-17T14:23:00.655Z,33.51
2023-06-17T14:28:22.613Z,33.05
2023-06-17T14:33:44.458Z,33.60
2023-06-17T14:39:06.347Z,33.29
2023-06-17T14:44:28.962Z,33.32
2023-06-17T14:49:53.621Z,33.15
2023-06-17T14:55:16.504Z,33.12
2023-06-17T15:00:38.483Z,33.32
2023-06-17T15:06:00.384Z,33.12
2023-06-17T15:11:22.239Z,33.06
2023-06-17T15:16:44.089Z,33.13
2023-06-17T15:22:06.584Z,33.12
2023-06-17T15:27:28.829Z,33.05
2023-06-17T15:32:52.820Z,32.71
2023-06-17T15:38:14.722Z,32.96
2023-06-17T15:43:37.048Z,33.13
2023-06-17T15:48:59.108Z,33.10
2023-06-17T15:54:26.667Z,33.10
2023-06-17T15:59:48.763Z,32.90
2023-06-17T16:05:11.835Z,33.06
2023-06-17T16:10:34.182Z,33.30
2023-06-17T16:15:56.320Z,32.97
2023-06-17T16:21:18.184Z,32.94
2023-06-17T16:26:40.083Z,32.95
2023-06-17T16:32:02.000Z,33.11
2023-06-17T16:37:23.906Z,33.08
2023-06-17T16:42:46.361Z,33.08
2023-06-17T16:48:10.488Z,33.04
2023-06-17T16:53:33.848Z,32.95
2023-06-17T16:58:55.920Z,33.26
2023-06-17T17:04:17.976Z,33.43
2023-06-17T17:09:41.476Z,33.41
2023-06-17T17:15:03.472Z,33.24
2023-06-17T17:20:25.770Z,33.25
2023-06-17T17:25:47.627Z,32.94
2023-06-17T17:31:10.100Z,32.65
2023-06-17T17:36:32.358Z,32.50
2023-06-17T17:41:54.188Z,32.62
2023-06-17T17:47:19.063Z,32.54
2023-06-17T17:52:41.465Z,32.74
2023-06-17T17:58:03.368Z,32.63
2023-06-17T18:03:25.398Z,32.79
2023-06-17T18:08:47.330Z,32.77
2023-06-17T18:14:09.190Z,32.82
2023-06-17T18:19:31.283Z,33.37
2023-06-17T18:24:53.198Z,34.03
2023-06-17T18:30:15.355Z,34.21
2023-06-17T18:35:37.266Z,34.33
2023-06-17T18:40:59.173Z,34.58
2023-06-17T18:46:21.978Z,34.43
2023-06-17T18:51:44.292Z,34.81
2023-06-17T18:57:06.392Z,34.87
2023-06-17T19:02:29.466Z,34.83
2023-06-17T19:07:51.362Z,34.96
2023-06-17T19:13:13.211Z,34.92
2023-06-17T19:18:35.097Z,34.55
2023-06-17T19:23:57.047Z,34.54
2023-06-17T19:29:18.916Z,34.48
2023-06-17T19:34:41.167Z,34.24
2023-06-17T19:40:03.336Z,33.93
2023-06-17T19:45:29.734Z,33.83
2023-06-17T19:50:52.080Z,33.72
2023-06-17T19:56:14.536Z,34.11
2023-06-17T20:01:36.842Z,33.86
2023-06-17T20:07:00.152Z,34.08
2023-06-17T20:12:22.627Z,33.74
2023-06-17T20:17:44.643Z,34.17
2023-06-17T20:23:06.576Z,34.46
2023-06-17T20:28:29.601Z,34.21
2023-06-17T20:33:51.496Z,34.46
2023-06-17T20:39:13.404Z,34.44
2023-06-17T20:44:35.270Z,34.48
2023-06-17T20:49:57.120Z,34.96
2023-06-17T20:55:19.060Z,34.88
2023-06-17T21:00:40.979Z,34.76
2023-06-17T21:06:03.123Z,34.80
2023-06-17T21:11:25.155Z,34.98
2023-06-17T21:16:47.073Z,34.96
2023-06-17T21:22:08.926Z,35.05
2023-06-17T21:27:31.049Z,34.78
2023-06-17T21:32:52.938Z,35.18
2023-06-17T21:38:14.953Z,35.15
2023-06-17T21:43:36.786Z,35.10
2023-06-17T21:48:58.661Z,35.45
2023-06-17T21:54:21.206Z,35.31
2023-06-17T21:59:43.338Z,35.43
2023-06-17T22:05:08.068Z,35.58
2023-06-17T22:10:29.932Z,35.59
2023-06-17T22:15:52.406Z,35.60
2023-06-17T22:21:14.276Z,35.73
2023-06-17T22:26:36.299Z,36.07
2023-06-17T22:31:58.196Z,35.49
2023-06-17T22:37:20.926Z,35.45
2023-06-17T22:42:42.899Z,35.75
2023-06-17T22:48:04.967Z,35.60
2023-06-17T22:53:27.149Z,35.66
2023-06-17T22:58:49.464Z,35.63
2023-06-17T23:04:11.539Z,35.83
2023-06-17T23:09:33.685Z,35.82
2023-06-17T23:14:55.723Z,35.68
2023-06-17T23:20:17.621Z,35.67
2023-06-17T23:25:39.500Z,35.76
2023-06-17T23:31:01.767Z,35.81
2023-06-17T23:36:24.371Z,35.61
2023-06-17T23:41:46.593Z,35.63
2023-06-17T23:47:09.349Z,35.82
2023-06-17T23:52:31.146Z,35.75
2023-06-17T23:57:52.950Z,35.55
